createdAt,value
2019-02-22T00:01:16.670Z,19.20
2019-02-22T00:03:48.413Z,17.40
2019-02-22T00:06:20.104Z,19.83
2019-02-22T00:08:51.785Z,19.50
2019-02-22T00:11:23.520Z,19.27
2019-02-22T00:13:55.191Z,19.97
2019-02-22T00:16:26.869Z,19.43
2019-02-22T00:18:58.620Z,19.23
2019-02-22T00:21:30.292Z,20.50
2019-02-22T00:24:01.985Z,19.70
2019-02-22T00:26:33.682Z,20.70
2019-02-22T00:29:05.456Z,20.50
2019-02-22T00:31:37.194Z,21.20
2019-02-22T00:34:08.973Z,21.87
2019-02-22T00:36:40.646Z,20.83
2019-02-22T00:39:12.488Z,19.27
2019-02-22T00:41:44.232Z,18.53
2019-02-22T00:44:15.931Z,19.33
2019-02-22T00:46:47.646Z,18.80
2019-02-22T00:49:19.366Z,18.23
2019-02-22T00:51:51.044Z,20.60
2019-02-22T00:54:22.804Z,19.03
2019-02-22T00:56:54.553Z,20.87
2019-02-22T00:59:26.328Z,20.57
2019-02-22T01:01:58.039Z,21.63
2019-02-22T01:04:29.713Z,21.33
2019-02-22T01:07:01.398Z,22.20
2019-02-22T01:09:33.140Z,22.17
2019-02-22T01:12:04.837Z,21.33
2019-02-22T01:14:36.525Z,22.23
2019-02-22T01:17:08.224Z,23.90
2019-02-22T01:19:40.001Z,26.57
2019-02-22T01:22:11.845Z,27.53
2019-02-22T01:24:43.573Z,28.90
2019-02-22T01:27:15.369Z,27.50
2019-02-22T01:29:47.137Z,27.50
2019-02-22T01:32:18.935Z,29.23
2019-02-22T01:34:50.723Z,29.47
2019-02-22T01:37:22.487Z,27.90
2019-02-22T01:39:54.276Z,26.60
2019-02-22T01:42:26.148Z,27.70
2019-02-22T01:44:57.829Z,26.53
2019-02-22T01:47:29.603Z,24.67
2019-02-22T01:50:01.292Z,29.03
2019-02-22T01:52:33.070Z,27.33
2019-02-22T01:55:04.876Z,28.10
2019-02-22T01:57:36.560Z,28.07
2019-02-22T02:00:08.563Z,28.70
2019-02-22T02:02:40.276Z,29.33
2019-02-22T02:05:12.228Z,28.57
2019-02-22T02:07:44.078Z,26.00
2019-02-22T02:10:15.790Z,27.30
2019-02-22T02:12:47.512Z,27.80
2019-02-22T02:15:19.209Z,29.13
2019-02-22T02:17:50.902Z,27.83
2019-02-22T02:20:22.640Z,26.20
2019-02-22T02:22:54.426Z,26.73
2019-02-22T02:25:26.121Z,25.00
2019-02-22T02:27:57.922Z,27.03
2019-02-22T02:30:29.614Z,25.33
2019-02-22T02:33:01.390Z,25.77
2019-02-22T02:35:33.099Z,24.90
2019-02-22T02:38:04.808Z,26.17
2019-02-22T02:40:36.525Z,28.17
2019-02-22T02:43:08.336Z,27.27
2019-02-22T02:45:40.186Z,27.67
2019-02-22T02:48:11.930Z,25.93
2019-02-22T02:50:43.700Z,29.23
2019-02-22T02:53:15.446Z,26.13
2019-02-22T02:55:47.269Z,25.73
2019-02-22T02:58:19.147Z,28.40
2019-02-22T03:00:50.938Z,26.67
2019-02-22T03:03:22.650Z,24.67
2019-02-22T03:06:25.734Z,23.13
2019-02-22T03:08:57.536Z,24.57
2019-02-22T03:11:29.322Z,22.83
2019-02-22T03:14:01.034Z,25.53
2019-02-22T03:16:32.813Z,24.50
2019-02-22T03:19:04.488Z,22.93
2019-02-22T03:21:36.325Z,27.90
2019-02-22T03:24:08.022Z,25.93
2019-02-22T03:26:39.793Z,24.03
2019-02-22T03:29:11.492Z,24.57
2019-02-22T03:31:43.174Z,24.53
2019-02-22T03:34:14.888Z,25.47
2019-02-22T03:36:46.665Z,24.27
2019-02-22T03:39:18.414Z,21.40
2019-02-22T03:41:50.187Z,22.60
2019-02-22T03:44:21.909Z,23.07
2019-02-22T03:46:53.607Z,28.10
2019-02-22T03:49:25.294Z,26.27
2019-02-22T03:51:57.490Z,21.27
2019-02-22T03:54:29.286Z,25.40
2019-02-22T03:57:01.019Z,23.13
2019-02-22T03:59:32.835Z,23.90
2019-02-22T04:02:04.634Z,23.93
2019-02-22T04:04:36.565Z,23.53
2019-02-22T04:07:08.299Z,24.53
2019-02-22T04:09:40.046Z,25.17
2019-02-22T04:12:11.775Z,23.47
2019-02-22T04:14:43.468Z,25.83
2019-02-22T04:17:15.230Z,22.67
2019-02-22T04:19:46.960Z,21.67
2019-02-22T04:22:18.618Z,20.73
2019-02-22T04:24:50.403Z,23.80
2019-02-22T04:27:22.094Z,22.13
2019-02-22T04:29:53.801Z,23.10
2019-02-22T04:32:25.472Z,27.62
2019-02-22T04:34:57.278Z,23.43
2019-02-22T04:37:29.052Z,23.53
2019-02-22T04:40:00.770Z,24.13
2019-02-22T04:42:32.511Z,25.53
2019-02-22T04:45:04.267Z,22.27
2019-02-22T04:47:35.949Z,24.93
2019-02-22T04:50:08.257Z,24.33
2019-02-22T04:52:40.057Z,23.00
2019-02-22T04:55:11.779Z,23.30
2019-02-22T04:57:43.570Z,24.00
2019-02-22T05:00:15.359Z,22.17
2019-02-22T05:02:47.009Z,20.07
2019-02-22T05:05:18.744Z,18.73
2019-02-22T05:07:50.533Z,19.77
2019-02-22T05:10:22.244Z,18.80
2019-02-22T05:12:53.998Z,19.37
2019-02-22T05:15:25.775Z,19.20
2019-02-22T05:17:57.505Z,22.70
2019-02-22T05:20:29.239Z,19.67
2019-02-22T05:23:04.431Z,20.17
2019-02-22T05:25:34.344Z,17.67
2019-02-22T05:28:06.076Z,18.47
2019-02-22T05:30:37.777Z,19.57
2019-02-22T05:33:09.562Z,21.27
2019-02-22T05:35:41.258Z,20.87
2019-02-22T05:38:12.952Z,19.43
2019-02-22T05:40:44.645Z,19.93
2019-02-22T05:43:16.429Z,17.77
2019-02-22T05:45:48.311Z,17.70
2019-02-22T05:48:19.997Z,17.90
2019-02-22T05:50:51.857Z,19.87
2019-02-22T05:53:23.642Z,18.33
2019-02-22T05:55:55.371Z,18.50
2019-02-22T05:58:27.161Z,18.73
2019-02-22T06:00:58.929Z,19.97
2019-02-22T06:03:30.696Z,18.73
2019-02-22T06:06:02.542Z,19.17
2019-02-22T06:08:34.240Z,21.00
2019-02-22T06:11:05.902Z,18.77
2019-02-22T06:13:37.690Z,18.87
2019-02-22T06:16:09.430Z,19.33
2019-02-22T06:18:41.214Z,18.33
2019-02-22T06:21:15.273Z,18.47
2019-02-22T06:23:46.387Z,18.27
2019-02-22T06:26:18.110Z,19.87
2019-02-22T06:28:49.948Z,19.00
2019-02-22T06:31:21.728Z,17.87
2019-02-22T06:33:53.584Z,18.17
2019-02-22T06:36:25.298Z,18.07
2019-02-22T06:38:56.984Z,18.83
2019-02-22T06:41:28.807Z,18.30
2019-02-22T06:44:00.613Z,19.20
2019-02-22T06:46:32.351Z,19.40
2019-02-22T06:49:04.129Z,19.27
2019-02-22T06:51:35.854Z,18.47
2019-02-22T06:54:07.713Z,18.57
2019-02-22T06:56:39.500Z,17.97
2019-02-22T06:59:12.603Z,18.27
2019-02-22T07:01:44.424Z,18.60
2019-02-22T07:04:16.311Z,18.47
2019-02-22T07:06:48.635Z,19.37
2019-02-22T07:09:20.451Z,17.60
2019-02-22T07:12:07.045Z,16.97
2019-02-22T07:14:42.057Z,15.73
2019-02-22T07:17:13.960Z,16.17
2019-02-22T07:19:45.687Z,17.17
2019-02-22T07:22:17.435Z,15.97
2019-02-22T07:24:52.798Z,18.67
2019-02-22T07:27:39.500Z,16.47
2019-02-22T07:30:11.695Z,17.27
2019-02-22T07:32:45.405Z,15.50
2019-02-22T07:35:17.191Z,16.67
2019-02-22T07:37:48.922Z,16.00
2019-02-22T07:40:20.710Z,16.20
2019-02-22T07:42:52.484Z,16.53
2019-02-22T07:45:24.255Z,16.70
2019-02-22T07:47:55.999Z,15.00
2019-02-22T07:50:27.692Z,14.73
2019-02-22T07:53:01.942Z,14.73
2019-02-22T07:55:33.652Z,15.23
2019-02-22T07:58:05.459Z,13.37
2019-02-22T08:00:37.252Z,12.83
2019-02-22T08:03:09.053Z,13.63
2019-02-22T08:05:40.766Z,13.57
2019-02-22T08:08:12.508Z,14.60
2019-02-22T08:10:51.735Z,14.70
2019-02-22T08:13:23.462Z,14.33
2019-02-22T08:15:55.110Z,14.17
2019-02-22T08:18:26.778Z,13.90
2019-02-22T08:20:58.504Z,15.53
2019-02-22T08:23:30.628Z,17.77
2019-02-22T08:26:02.440Z,15.43
2019-02-22T08:28:34.215Z,15.63
2019-02-22T08:31:05.873Z,14.40
2019-02-22T08:33:37.661Z,15.50
2019-02-22T08:36:09.425Z,14.77
2019-02-22T08:38:41.187Z,15.33
2019-02-22T08:41:12.928Z,14.83
2019-02-22T08:43:44.808Z,16.47
2019-02-22T08:46:16.552Z,16.27
2019-02-22T08:48:48.328Z,16.03
2019-02-22T08:51:20.123Z,16.63
2019-02-22T08:53:51.813Z,16.80
2019-02-22T08:56:23.537Z,16.10
2019-02-22T08:58:55.195Z,16.37
2019-02-22T09:01:26.938Z,16.43
2019-02-22T09:03:58.643Z,15.40
2019-02-22T09:06:30.379Z,15.67
2019-02-22T09:09:02.111Z,16.90
2019-02-22T09:11:33.849Z,15.77
2019-02-22T09:14:05.666Z,17.00
2019-02-22T09:16:37.627Z,16.63
2019-02-22T09:19:09.355Z,16.37
2019-02-22T09:21:41.113Z,17.57
2019-02-22T09:24:12.923Z,17.53
2019-02-22T09:26:44.581Z,17.97
2019-02-22T09:29:16.295Z,18.20
2019-02-22T09:31:48.088Z,16.73
2019-02-22T09:34:19.865Z,17.23
2019-02-22T09:36:51.546Z,18.23
2019-02-22T09:39:23.447Z,17.50
2019-02-22T09:41:55.202Z,17.73
2019-02-22T09:44:26.972Z,19.00
2019-02-22T09:46:58.702Z,19.33
2019-02-22T09:49:30.443Z,20.93
2019-02-22T09:52:02.146Z,19.27
2019-02-22T09:54:33.978Z,17.87
2019-02-22T09:57:05.734Z,19.67
2019-02-22T09:59:37.554Z,20.53
2019-02-22T10:02:09.272Z,17.33
2019-02-22T10:04:41.043Z,20.27
2019-02-22T10:07:12.734Z,20.53
2019-02-22T10:09:44.656Z,19.97
2019-02-22T10:12:16.318Z,23.57
2019-02-22T10:14:48.104Z,23.70
2019-02-22T10:17:20.925Z,23.60
2019-02-22T10:19:52.733Z,24.70
2019-02-22T10:22:24.472Z,25.20
2019-02-22T10:24:56.251Z,24.33
2019-02-22T10:27:27.970Z,21.63
2019-02-22T10:29:59.811Z,22.20
2019-02-22T10:32:32.997Z,19.13
2019-02-22T10:35:04.715Z,18.50
2019-02-22T10:37:38.137Z,18.27
2019-02-22T10:40:11.374Z,18.20
2019-02-22T10:42:43.223Z,17.53
2019-02-22T10:45:15.111Z,17.77
2019-02-22T10:47:46.891Z,17.57
2019-02-22T10:50:18.683Z,17.47
2019-02-22T10:53:01.445Z,16.17
2019-02-22T10:55:24.007Z,17.10
2019-02-22T10:57:55.889Z,17.40
2019-02-22T11:00:27.666Z,16.53
2019-02-22T11:02:59.453Z,17.97
2019-02-22T11:05:31.120Z,15.80
2019-02-22T11:08:02.937Z,17.07
2019-02-22T11:10:36.883Z,15.80
2019-02-22T11:13:08.604Z,16.40
2019-02-22T11:15:41.282Z,15.60
2019-02-22T11:18:16.038Z,16.67
2019-02-22T11:20:49.540Z,16.60
2019-02-22T11:23:22.207Z,16.17
2019-02-22T11:25:55.014Z,14.87
2019-02-22T11:28:26.820Z,15.73
2019-02-22T11:30:58.528Z,14.60
2019-02-22T11:33:30.286Z,13.90
2019-02-22T11:36:01.972Z,15.83
2019-02-22T11:38:33.700Z,13.32
2019-02-22T11:41:05.541Z,13.93
2019-02-22T11:43:37.310Z,14.75
2019-02-22T11:46:09.018Z,15.00
2019-02-22T11:48:40.819Z,14.55
2019-02-22T11:51:12.661Z,13.57
2019-02-22T11:53:44.341Z,14.03
2019-02-22T11:56:16.126Z,12.50
2019-02-22T11:58:47.871Z,13.18
2019-02-22T12:01:19.635Z,14.28
2019-02-22T12:03:53.459Z,13.90
2019-02-22T12:06:25.557Z,14.28
2019-02-22T12:08:57.373Z,13.70
2019-02-22T12:11:29.133Z,14.15
2019-02-22T12:14:00.903Z,13.38
2019-02-22T12:16:32.599Z,14.78
2019-02-22T12:19:04.405Z,14.85
2019-02-22T12:21:36.167Z,13.43
2019-02-22T12:24:07.889Z,14.87
2019-02-22T12:26:39.728Z,15.03
2019-02-22T12:29:11.467Z,16.17
2019-02-22T12:31:43.189Z,14.95
2019-02-22T12:34:14.979Z,14.13
2019-02-22T12:36:46.675Z,13.50
2019-02-22T12:39:18.669Z,15.32
2019-02-22T12:41:50.477Z,15.75
2019-02-22T12:44:24.629Z,14.60
2019-02-22T12:46:56.398Z,15.00
2019-02-22T12:49:28.150Z,16.27
2019-02-22T12:51:59.860Z,15.23
2019-02-22T12:54:31.600Z,16.10
2019-02-22T12:57:03.518Z,15.68
2019-02-22T12:59:35.460Z,15.70
2019-02-22T13:02:07.165Z,16.73
2019-02-22T13:04:38.838Z,17.02
2019-02-22T13:07:10.517Z,15.18
2019-02-22T13:09:42.272Z,15.48
2019-02-22T13:12:16.657Z,15.18
2019-02-22T13:14:47.469Z,15.85
2019-02-22T13:17:30.268Z,15.75
2019-02-22T13:19:52.739Z,16.05
2019-02-22T13:22:24.558Z,15.60
2019-02-22T13:24:56.216Z,15.88
2019-02-22T13:27:27.990Z,12.75
2019-02-22T13:29:59.702Z,14.58
2019-02-22T13:32:31.464Z,14.65
2019-02-22T13:35:03.139Z,13.65
2019-02-22T13:37:34.909Z,16.07
2019-02-22T13:40:07.691Z,16.05
2019-02-22T13:42:40.128Z,16.57
2019-02-22T13:45:11.996Z,15.55
2019-02-22T13:47:43.763Z,15.32
2019-02-22T13:50:15.561Z,14.87
2019-02-22T13:52:47.347Z,16.40
2019-02-22T13:55:19.184Z,16.00
2019-02-22T13:57:50.909Z,15.68
2019-02-22T14:00:22.682Z,15.75
2019-02-22T14:02:54.525Z,16.87
2019-02-22T14:05:26.303Z,16.37
2019-02-22T14:07:58.247Z,14.53
2019-02-22T14:10:29.943Z,16.42
2019-02-22T14:13:01.787Z,16.32
2019-02-22T14:15:37.913Z,16.93
2019-02-22T14:18:07.075Z,14.60
2019-02-22T14:20:39.025Z,15.40
2019-02-22T14:23:10.759Z,16.37
2019-02-22T14:25:42.601Z,15.07
2019-02-22T14:28:14.491Z,15.27
2019-02-22T14:30:46.235Z,13.62
2019-02-22T14:33:18.095Z,14.43
2019-02-22T14:35:50.003Z,13.53
2019-02-22T14:38:22.172Z,13.10
2019-02-22T14:40:55.009Z,14.00
2019-02-22T14:43:26.831Z,13.93
2019-02-22T14:45:58.701Z,14.30
2019-02-22T14:48:30.743Z,12.93
2019-02-22T14:51:02.593Z,12.20
2019-02-22T14:53:34.412Z,13.13
2019-02-22T14:56:06.215Z,12.78
2019-02-22T14:58:38.114Z,12.50
2019-02-22T15:01:09.962Z,12.35
2019-02-22T15:03:41.820Z,11.73
2019-02-22T15:06:13.722Z,11.43
2019-02-22T15:08:45.558Z,10.13
2019-02-22T15:11:18.568Z,9.17
2019-02-22T15:13:50.414Z,7.95
2019-02-22T15:16:39.216Z,8.67
2019-02-22T15:19:11.215Z,9.00
2019-02-22T15:21:43.127Z,9.28
2019-02-22T15:24:14.892Z,8.68
2019-02-22T15:26:47.101Z,8.70
2019-02-22T15:29:19.046Z,8.75
2019-02-22T15:31:50.826Z,8.13
2019-02-22T15:34:22.654Z,8.75
2019-02-22T15:36:54.457Z,9.10
2019-02-22T15:39:26.412Z,8.20
2019-02-22T15:41:58.420Z,8.08
2019-02-22T15:44:30.213Z,7.47
2019-02-22T15:47:11.370Z,8.57
2019-02-22T15:49:35.451Z,8.23
2019-02-22T15:52:07.301Z,7.92
2019-02-22T15:54:39.150Z,7.87
2019-02-22T15:57:10.929Z,8.13
2019-02-22T15:59:42.637Z,9.18
2019-02-22T16:02:14.421Z,8.13
2019-02-22T16:05:05.143Z,8.93
2019-02-22T16:07:44.201Z,8.60
2019-02-22T16:10:10.374Z,8.95
2019-02-22T16:12:42.286Z,9.25
2019-02-22T16:15:15.809Z,8.60
2019-02-22T16:17:48.492Z,8.45
2019-02-22T16:20:20.447Z,9.73
2019-02-22T16:22:52.183Z,10.43
2019-02-22T16:25:23.889Z,11.37
2019-02-22T16:27:55.640Z,10.98
2019-02-22T16:30:31.157Z,12.10
2019-02-22T16:33:03.256Z,12.93
2019-02-22T16:35:35.115Z,11.68
2019-02-22T16:38:06.851Z,11.67
2019-02-22T16:40:38.699Z,14.33
2019-02-22T16:43:10.653Z,13.93
2019-02-22T16:45:42.552Z,14.47
2019-02-22T16:48:14.466Z,15.00
2019-02-22T16:50:46.294Z,13.90
2019-02-22T16:53:18.150Z,13.78
2019-02-22T16:55:50.030Z,14.70
2019-02-22T16:58:21.889Z,14.93
2019-02-22T17:00:53.706Z,13.80
2019-02-22T17:03:25.510Z,14.97
2019-02-22T17:05:57.706Z,15.07
2019-02-22T17:08:35.518Z,14.80
2019-02-22T17:11:08.672Z,16.43
2019-02-22T17:13:56.547Z,15.70
2019-02-22T17:16:28.744Z,14.47
2019-02-22T17:19:02.156Z,14.80
2019-02-22T17:21:34.093Z,15.37
2019-02-22T17:24:06.098Z,14.87
2019-02-22T17:26:38.025Z,15.33
2019-02-22T17:29:09.795Z,13.90
2019-02-22T17:31:41.607Z,15.30
2019-02-22T17:34:13.483Z,15.27
2019-02-22T17:36:45.293Z,15.47
2019-02-22T17:39:17.156Z,14.63
2019-02-22T17:41:48.937Z,15.00
2019-02-22T17:44:20.853Z,16.30
2019-02-22T17:46:57.718Z,15.23
2019-02-22T17:49:27.336Z,15.43
2019-02-22T17:51:59.224Z,15.60
2019-02-22T17:54:31.023Z,16.63
2019-02-22T17:57:02.930Z,15.73
2019-02-22T17:59:34.733Z,17.33
2019-02-22T18:02:06.675Z,16.13
2019-02-22T18:04:38.484Z,16.83
2019-02-22T18:07:10.333Z,16.83
2019-02-22T18:09:42.103Z,16.93
2019-02-22T18:12:13.843Z,18.43
2019-02-22T18:14:48.008Z,17.57
2019-02-22T18:17:19.851Z,18.13
2019-02-22T18:19:51.724Z,14.30
2019-02-22T18:22:26.020Z,17.70
2019-02-22T18:24:56.922Z,17.23
2019-02-22T18:27:28.623Z,16.90
2019-02-22T18:30:00.318Z,17.00
2019-02-22T18:32:32.100Z,18.55
2019-02-22T18:35:03.887Z,17.17
2019-02-22T18:37:35.675Z,17.47
2019-02-22T18:40:09.822Z,18.50
2019-02-22T18:42:41.717Z,17.23
2019-02-22T18:45:13.538Z,17.67
2019-02-22T18:47:45.306Z,17.67
2019-02-22T18:50:17.112Z,17.10
2019-02-22T18:52:48.790Z,17.83
2019-02-22T18:55:20.525Z,20.00
2019-02-22T18:57:52.282Z,18.93
2019-02-22T19:00:24.077Z,19.80
2019-02-22T19:02:55.847Z,18.70
2019-02-22T19:05:27.568Z,19.47
2019-02-22T19:07:59.348Z,20.27
2019-02-22T19:10:31.045Z,20.43
2019-02-22T19:13:02.750Z,21.90
2019-02-22T19:15:34.539Z,24.20
2019-02-22T19:18:06.308Z,23.53
2019-02-22T19:20:39.182Z,23.17
2019-02-22T19:23:10.897Z,22.43
2019-02-22T19:25:42.617Z,23.23
2019-02-22T19:28:14.288Z,22.20
2019-02-22T19:30:46.061Z,23.53
2019-02-22T19:33:17.777Z,24.23
2019-02-22T19:35:49.549Z,25.20
2019-02-22T19:38:21.338Z,27.03
2019-02-22T19:40:53.080Z,29.93
2019-02-22T19:43:24.734Z,31.73
2019-02-22T19:45:56.516Z,34.13
2019-02-22T19:48:28.216Z,35.40
2019-02-22T19:50:59.948Z,36.38
2019-02-22T19:53:31.678Z,36.97
2019-02-22T19:56:03.816Z,36.07
2019-02-22T19:58:35.530Z,36.93
2019-02-22T20:01:07.336Z,37.20
2019-02-22T20:03:39.036Z,36.08
2019-02-22T20:06:10.784Z,39.10
2019-02-22T20:08:42.544Z,37.95
2019-02-22T20:11:14.350Z,37.00
2019-02-22T20:13:46.104Z,33.80
2019-02-22T20:16:17.824Z,32.30
2019-02-22T20:18:49.618Z,35.37
2019-02-22T20:21:21.357Z,32.10
2019-02-22T20:23:53.072Z,31.97
2019-02-22T20:26:24.854Z,31.50
2019-02-22T20:28:56.542Z,32.40
2019-02-22T20:31:28.420Z,33.23
2019-02-22T20:34:00.136Z,29.67
2019-02-22T20:36:31.855Z,32.20
2019-02-22T20:39:05.226Z,30.20
2019-02-22T20:41:36.982Z,31.67
2019-02-22T20:44:08.731Z,30.57
2019-02-22T20:46:40.535Z,30.73
2019-02-22T20:49:12.341Z,32.00
2019-02-22T20:51:44.213Z,32.00
2019-02-22T20:54:16.021Z,31.27
2019-02-22T20:56:47.712Z,30.50
2019-02-22T20:59:19.786Z,29.27
2019-02-22T21:01:51.523Z,32.30
2019-02-22T21:04:23.221Z,29.63
2019-02-22T21:06:54.953Z,30.33
2019-02-22T21:09:26.715Z,31.83
2019-02-22T21:11:58.438Z,30.70
2019-02-22T21:14:30.235Z,29.47
2019-02-22T21:17:01.923Z,29.97
2019-02-22T21:19:33.602Z,31.30
2019-02-22T21:22:05.283Z,30.33
2019-02-22T21:24:36.967Z,29.93
2019-02-22T21:27:08.689Z,28.33
2019-02-22T21:29:40.449Z,27.63
2019-02-22T21:32:12.237Z,26.50
2019-02-22T21:34:43.925Z,30.50
2019-02-22T21:37:15.617Z,28.43
2019-02-22T21:39:47.303Z,27.37
2019-02-22T21:42:20.481Z,29.43
2019-02-22T21:44:52.350Z,27.63
2019-02-22T21:47:24.073Z,28.63
2019-02-22T21:49:55.849Z,28.13
2019-02-22T21:52:27.591Z,28.30
2019-02-22T21:54:59.401Z,27.13
2019-02-22T21:57:31.208Z,25.97
2019-02-22T22:00:02.900Z,28.73
2019-02-22T22:02:34.664Z,28.30
2019-02-22T22:05:06.852Z,27.47
2019-02-22T22:07:38.592Z,28.20
2019-02-22T22:10:10.304Z,29.03
2019-02-22T22:12:42.010Z,27.90
2019-02-22T22:15:13.750Z,28.10
2019-02-22T22:17:45.439Z,28.97
2019-02-22T22:20:17.256Z,29.03
2019-02-22T22:22:49.014Z,28.50
2019-02-22T22:25:20.824Z,27.10
2019-02-22T22:27:52.549Z,28.87
2019-02-22T22:30:24.371Z,27.33
2019-02-22T22:32:56.177Z,28.90
2019-02-22T22:35:27.886Z,28.37
2019-02-22T22:37:59.580Z,28.23
2019-02-22T22:40:31.338Z,27.83
2019-02-22T22:43:03.045Z,27.13
2019-02-22T22:45:34.858Z,24.90
2019-02-22T22:48:06.819Z,28.73
2019-02-22T22:50:38.598Z,28.40
2019-02-22T22:53:10.317Z,25.13
2019-02-22T22:55:42.035Z,28.33
2019-02-22T22:58:14.963Z,27.33
2019-02-22T23:01:07.481Z,24.60
2019-02-22T23:03:39.351Z,24.30
2019-02-22T23:06:12.044Z,26.30
2019-02-22T23:08:44.093Z,24.67
2019-02-22T23:11:15.796Z,26.27
2019-02-22T23:13:47.515Z,26.17
2019-02-22T23:16:19.299Z,25.77
2019-02-22T23:19:01.554Z,26.37
2019-02-22T23:21:24.886Z,25.20
2019-02-22T23:23:56.603Z,23.83
2019-02-22T23:26:28.411Z,24.27
2019-02-22T23:29:01.874Z,23.33
2019-02-22T23:31:33.955Z,23.60
2019-02-22T23:34:05.754Z,23.93
2019-02-22T23:36:37.590Z,23.07
2019-02-22T23:39:09.758Z,24.33
2019-02-22T23:41:41.538Z,21.90
2019-02-22T23:44:13.262Z,22.87
2019-02-22T23:46:45.017Z,24.33
2019-02-22T23:49:16.734Z,23.77
2019-02-22T23:51:48.528Z,23.10
2019-02-22T23:54:20.333Z,24.00
2019-02-22T23:56:52.110Z,23.83
2019-02-22T23:59:23.812Z,22.80
